East Blue Hill, ME (04629)

10:14 AM EST on February 14, 2016 (GMT -0500)
APRSWXNET | | Change Station
CLOSE
Current Station
Personal Weather Station
Location: East Blue Hill, ME
Elevation: 62 ft
Nearby Weather Stations

Elev 62 ft 44.41 °N, 68.57 °W | Updated 21 minutes ago

Clear
Clear
-1 °F
Feels Like -20 °F
N
14
Wind Variable Wind from NW
Gusts 25.0 mph

Today
High -- | Low -- °F
--% Chance of Precip.
Yesterday
High -- | Low -- °F
Precip. -- in
Pressure 30.19 in
Visibility 10.0 miles
Clouds Clear
Windchill -20 °F
Dew Point -11 °F
Humidity 61%
Rainfall in
Snow Depth Not available.
6:36 AM 5:01 PM
Waxing Crescent, 42% visible
METAR KBHB 141455Z 31007G15KT 10SM CLR M16/M24 A3019 RMK AO1 52027
Pressure 30.19 in
Visibility 10.0 miles
Clouds Clear
Windchill -20 °F
Dew Point -11 °F
Humidity 61%
Rainfall in
Snow Depth Not available.
6:36 AM 5:01 PM
Waxing Crescent, 42% visible
METAR KBHB 141455Z 31007G15KT 10SM CLR M16/M24 A3019 RMK AO1 52027

10-Day Weather Forecast

Almanac

Astronomy

Feb. 14, 2016 Rise Set
Actual Time
Civil Twilight
Nautical Twilight
Astronomical Twilight
Moon
Length of Visible Light
Length of Day
Tomorrow will be .
, % of the Moon is Illuminated

Today's Extremes

State Highs State Lows

Community

WunderPhotos

Upload Photos

1,892,788 photos uploaded!

WunderBlog® & News

Nearby

Air Quality

  Air Quality AQ Index Pollutant
Not available.

Snow Depth

Station Depth Elevation

Earthquake Activity

City Distance Mag. Time & Date
Minimum magnitude displayed is 2.5.

Coastal Water Temperatures

Place Temperature

Stations

Nearby Weather Stations

Station Location Temp. Windchill Dew Point Humidity Wind Precip. Elev Updated Type
                   

Watches & Warnings

There are currently no watches in effect.